Time;durP1;ratioP1;P1;durP2;ratioP2;P2;SDS_P1;SDS_P2;PMS_P1;PMS_P2;Temp;Humidity;BMP_temperature;BMP_pressure;BME280_temperature;BME280_humidity;BME280_pressure;Samples;Min_cycle;Max_cycle;Signal;HPM_P1;HPM_P2
2022/05/06 00:00:32;;;;;;;0.45;0.45;;;;;;;;;;5015583;28;99404;-73
2022/05/06 00:02:58;;;;;;;2.85;1.63;;;;;;;;;;5014916;28;99804;-74
2022/05/06 00:05:24;;;;;;;0.10;0.10;;;;;;;;;;5018906;28;98409;-73
2022/05/06 00:07:51;;;;;;;0.10;0.10;;;;;;;;;;5014645;28;100386;-73
2022/05/06 00:10:17;;;;;;;0.43;0.43;;;;;;;;;;5015072;28;98375;-74
2022/05/06 00:12:43;;;;;;;0.20;0.20;;;;;;;;;;5015425;28;99268;-73
2022/05/06 00:15:11;;;;;;;0.32;0.32;;;;;;;;;;5015013;28;99128;-73
2022/05/06 00:17:39;;;;;;;0.10;0.10;;;;;;;;;;5015667;28;98566;-73
2022/05/06 00:20:06;;;;;;;1.08;0.63;;;;;;;;;;5015408;28;98932;-73
2022/05/06 00:22:32;;;;;;;0.00;0.00;;;;;;;;;;5014726;28;99019;-73
2022/05/06 00:24:58;;;;;;;0.35;0.35;;;;;;;;;;5018409;28;97634;-73
2022/05/06 00:27:25;;;;;;;0.98;0.85;;;;;;;;;;5014930;28;100217;-73
2022/05/06 00:29:51;;;;;;;0.82;0.82;;;;;;;;;;5015123;28;98323;-73
2022/05/06 00:32:18;;;;;;;1.52;0.40;;;;;;;;;;5014575;28;100290;-73
2022/05/06 00:34:45;;;;;;;1.25;0.70;;;;;;;;;;4998354;28;101228;-73
2022/05/06 00:37:11;;;;;;;0.10;0.10;;;;;;;;;;5013349;28;99142;-73
2022/05/06 00:39:37;;;;;;;2.67;0.73;;;;;;;;;;5014725;28;98293;-73
2022/05/06 00:42:04;;;;;;;0.25;0.25;;;;;;;;;;5014422;28;99277;-73
2022/05/06 00:44:32;;;;;;;2.50;0.57;;;;;;;;;;5014887;28;99393;-73
2022/05/06 00:46:58;;;;;;;0.80;0.55;;;;;;;;;;5017804;28;100081;-73
2022/05/06 00:49:25;;;;;;;0.10;0.10;;;;;;;;;;5013920;28;97692;-73
2022/05/06 00:51:52;;;;;;;5.10;0.75;;;;;;;;;;5015015;28;98457;-73
2022/05/06 00:54:21;;;;;;;0.30;0.30;;;;;;;;;;4996163;28;101396;-73
2022/05/06 00:56:47;;;;;;;0.00;0.00;;;;;;;;;;5013900;28;99113;-73
2022/05/06 00:59:14;;;;;;;0.22;0.22;;;;;;;;;;5014865;28;99960;-73
2022/05/06 01:01:41;;;;;;;1.35;0.57;;;;;;;;;;5014209;28;99881;-72
2022/05/06 01:04:08;;;;;;;0.98;0.55;;;;;;;;;;4996836;28;98465;-73
2022/05/06 01:06:35;;;;;;;0.10;0.10;;;;;;;;;;4995964;28;101799;-72
2022/05/06 01:09:02;;;;;;;0.28;0.28;;;;;;;;;;4999522;28;102136;-73
2022/05/06 01:11:28;;;;;;;0.43;0.43;;;;;;;;;;4996495;28;101267;-73
2022/05/06 01:13:56;;;;;;;0.00;0.00;;;;;;;;;;4996804;28;99742;-73
2022/05/06 01:16:32;;;;;;;0.20;0.20;;;;;;;;;;4996623;28;98446;-73
2022/05/06 01:19:02;;;;;;;0.00;0.00;;;;;;;;;;4996067;28;101352;-73
2022/05/06 01:21:34;;;;;;;0.10;0.10;;;;;;;;;;5007232;28;100188;-73
2022/05/06 01:24:01;;;;;;;3.20;0.45;;;;;;;;;;5014110;28;98890;-73
2022/05/06 01:26:46;;;;;;;0.82;0.50;;;;;;;;;;5014147;28;99736;-73
2022/05/06 01:29:12;;;;;;;0.10;0.10;;;;;;;;;;4996174;28;101977;-73
2022/05/06 01:31:39;;;;;;;0.03;0.03;;;;;;;;;;5017000;28;98393;-73
2022/05/06 01:34:09;;;;;;;0.70;0.20;;;;;;;;;;5013526;28;99610;-72
2022/05/06 01:36:36;;;;;;;0.57;0.45;;;;;;;;;;4996197;28;98446;-72
2022/05/06 01:39:02;;;;;;;0.20;0.17;;;;;;;;;;5013113;28;102360;-73
2022/05/06 01:41:33;;;;;;;0.43;0.30;;;;;;;;;;4995410;28;100291;-73
2022/05/06 01:44:07;;;;;;;0.00;0.00;;;;;;;;;;5010775;28;98606;-73
2022/05/06 01:46:36;;;;;;;0.10;0.10;;;;;;;;;;4994580;28;100871;-73
2022/05/06 01:49:05;;;;;;;0.20;0.10;;;;;;;;;;4993692;28;102048;-73
2022/05/06 01:51:32;;;;;;;0.13;0.13;;;;;;;;;;4994774;28;98390;-73
2022/05/06 01:54:01;;;;;;;0.20;0.20;;;;;;;;;;4997704;28;101689;-73
2022/05/06 01:56:28;;;;;;;0.25;0.25;;;;;;;;;;4994817;28;98531;-73
2022/05/06 01:58:55;;;;;;;0.30;0.30;;;;;;;;;;4994241;28;101853;-73
2022/05/06 02:01:21;;;;;;;0.30;0.25;;;;;;;;;;5010620;28;102478;-73
2022/05/06 02:06:36;;;;;;;0.73;0.32;;;;;;;;;;4994945;28;101074;-73
2022/05/06 02:09:11;;;;;;;1.00;0.57;;;;;;;;;;4993882;28;102089;-73
2022/05/06 02:11:50;;;;;;;0.98;0.30;;;;;;;;;;4994299;28;99156;-73
2022/05/06 02:14:17;;;;;;;0.20;0.20;;;;;;;;;;4997377;28;102538;-73
2022/05/06 02:17:08;;;;;;;0.23;0.23;;;;;;;;;;5012864;28;98360;-73
2022/05/06 02:19:43;;;;;;;0.98;0.43;;;;;;;;;;4995277;28;100942;-73
2022/05/06 02:22:48;;;;;;;0.32;0.32;;;;;;;;;;4970850;28;98955;-73
2022/05/06 02:25:26;;;;;;;0.10;0.10;;;;;;;;;;4953733;28;98443;-73
2022/05/06 02:27:59;;;;;;;0.80;0.52;;;;;;;;;;5011044;28;101739;-73
2022/05/06 02:33:23;;;;;;;1.95;0.40;;;;;;;;;;4995246;28;98356;-72
2022/05/06 02:36:08;;;;;;;0.32;0.32;;;;;;;;;;4995386;28;101476;-72
2022/05/06 02:38:35;;;;;;;0.03;0.03;;;;;;;;;;5014434;28;102815;-72
2022/05/06 02:41:02;;;;;;;0.00;0.00;;;;;;;;;;4995043;28;101756;-73
2022/05/06 02:43:38;;;;;;;0.08;0.08;;;;;;;;;;5011780;28;102326;-73
2022/05/06 02:46:04;;;;;;;0.20;0.20;;;;;;;;;;4995319;28;98448;-73
2022/05/06 02:48:31;;;;;;;0.00;0.00;;;;;;;;;;4994360;28;101682;-73
2022/05/06 02:50:58;;;;;;;0.00;0.00;;;;;;;;;;4990300;28;102238;-73
2022/05/06 02:53:30;;;;;;;0.00;0.00;;;;;;;;;;4977823;28;99387;-73
2022/05/06 02:55:57;;;;;;;0.30;0.30;;;;;;;;;;5011001;28;101692;-73
2022/05/06 02:58:26;;;;;;;0.10;0.10;;;;;;;;;;4994955;28;101165;-73
2022/05/06 03:00:52;;;;;;;0.00;0.00;;;;;;;;;;5019649;28;98410;-73
2022/05/06 03:03:19;;;;;;;0.40;0.20;;;;;;;;;;4997352;28;100920;-73
2022/05/06 03:05:47;;;;;;;0.00;0.00;;;;;;;;;;5014933;28;98501;-73
2022/05/06 03:08:17;;;;;;;0.00;0.00;;;;;;;;;;5016217;28;99453;-73
2022/05/06 03:10:43;;;;;;;0.00;0.00;;;;;;;;;;4981358;28;102545;-72
2022/05/06 03:13:10;;;;;;;0.05;0.05;;;;;;;;;;4996968;28;98515;-73
2022/05/06 03:15:36;;;;;;;0.00;0.00;;;;;;;;;;5011903;28;100375;-73
2022/05/06 03:18:08;;;;;;;0.38;0.38;;;;;;;;;;4995929;28;102028;-73
2022/05/06 03:20:38;;;;;;;0.00;0.00;;;;;;;;;;5016666;28;97645;-72
2022/05/06 03:23:04;;;;;;;0.45;0.40;;;;;;;;;;5017797;28;99052;-74
2022/05/06 03:25:31;;;;;;;0.10;0.10;;;;;;;;;;4997759;28;98432;-72
2022/05/06 03:28:07;;;;;;;0.00;0.00;;;;;;;;;;5014218;28;101943;-72
2022/05/06 03:30:39;;;;;;;0.00;0.00;;;;;;;;;;5015611;28;99124;-73
2022/05/06 03:33:13;;;;;;;0.22;0.22;;;;;;;;;;4997920;28;98516;-73
2022/05/06 03:35:41;;;;;;;0.30;0.30;;;;;;;;;;4998166;28;101443;-73
2022/05/06 03:38:08;;;;;;;0.20;0.20;;;;;;;;;;4997586;28;101569;-73
2022/05/06 03:40:38;;;;;;;0.10;0.10;;;;;;;;;;5014433;28;98409;-73
2022/05/06 03:43:06;;;;;;;0.08;0.08;;;;;;;;;;4997255;28;101861;-74
2022/05/06 03:45:36;;;;;;;0.20;0.20;;;;;;;;;;5001255;28;101394;-73
2022/05/06 03:48:02;;;;;;;2.05;0.32;;;;;;;;;;4997624;28;98846;-73
2022/05/06 03:53:19;;;;;;;0.70;0.70;;;;;;;;;;4997176;28;99287;-73
2022/05/06 03:55:51;;;;;;;2.03;1.77;;;;;;;;;;5014137;28;102062;-73
2022/05/06 03:58:18;;;;;;;1.80;0.90;;;;;;;;;;5013918;28;101966;-73
2022/05/06 04:00:45;;;;;;;0.15;0.15;;;;;;;;;;4997193;28;102575;-73
2022/05/06 04:03:14;;;;;;;0.25;0.25;;;;;;;;;;5013901;28;101363;-73
2022/05/06 04:05:41;;;;;;;2.35;1.25;;;;;;;;;;4997100;28;101626;-73
2022/05/06 04:08:08;;;;;;;0.57;0.57;;;;;;;;;;5016861;28;98446;-72
2022/05/06 04:10:36;;;;;;;1.45;0.70;;;;;;;;;;4996401;28;100884;-74
2022/05/06 04:13:03;;;;;;;2.70;2.30;;;;;;;;;;5013479;28;98472;-74
2022/05/06 04:15:34;;;;;;;3.22;2.88;;;;;;;;;;4996829;28;101764;-74
2022/05/06 04:18:04;;;;;;;2.35;2.15;;;;;;;;;;5012663;28;102306;-73
2022/05/06 04:23:29;;;;;;;0.40;0.40;;;;;;;;;;4996838;28;102411;-72
2022/05/06 04:26:02;;;;;;;0.35;0.35;;;;;;;;;;4996741;28;102330;-72
2022/05/06 04:28:31;;;;;;;0.32;0.25;;;;;;;;;;5016678;28;98544;-72
2022/05/06 04:31:01;;;;;;;0.13;0.13;;;;;;;;;;4996450;28;101736;-72
2022/05/06 04:33:32;;;;;;;0.10;0.10;;;;;;;;;;4997144;28;98402;-73
2022/05/06 04:35:59;;;;;;;1.55;0.17;;;;;;;;;;5014304;28;101840;-73
2022/05/06 04:38:27;;;;;;;0.30;0.30;;;;;;;;;;5013102;28;102540;-72
2022/05/06 04:40:58;;;;;;;0.00;0.00;;;;;;;;;;5012708;28;98407;-72
2022/05/06 04:43:27;;;;;;;0.00;0.00;;;;;;;;;;4996326;28;101753;-72
2022/05/06 04:45:55;;;;;;;0.00;0.00;;;;;;;;;;5013181;28;102636;-72
2022/05/06 04:48:25;;;;;;;0.00;0.00;;;;;;;;;;4996712;28;99484;-72
2022/05/06 04:50:51;;;;;;;0.00;0.00;;;;;;;;;;5016202;28;101660;-72
2022/05/06 04:53:19;;;;;;;0.00;0.00;;;;;;;;;;5014575;28;98181;-73
2022/05/06 04:55:48;;;;;;;0.35;0.22;;;;;;;;;;5013418;28;101216;-72
2022/05/06 04:58:18;;;;;;;0.00;0.00;;;;;;;;;;4996289;28;102044;-72
2022/05/06 05:00:45;;;;;;;0.00;0.00;;;;;;;;;;5014901;28;97719;-72
2022/05/06 05:03:13;;;;;;;0.00;0.00;;;;;;;;;;4996862;28;98496;-73
2022/05/06 05:05:39;;;;;;;0.10;0.10;;;;;;;;;;4996377;28;101305;-73
2022/05/06 05:08:08;;;;;;;0.00;0.00;;;;;;;;;;5013357;28;99122;-74
2022/05/06 05:10:40;;;;;;;0.08;0.08;;;;;;;;;;4996520;28;102444;-73
2022/05/06 05:13:06;;;;;;;0.08;0.08;;;;;;;;;;5017392;28;99577;-73
2022/05/06 05:15:34;;;;;;;0.43;0.43;;;;;;;;;;4979729;28;102309;-73
2022/05/06 05:18:02;;;;;;;0.38;0.30;;;;;;;;;;5012173;28;101676;-73
2022/05/06 05:20:29;;;;;;;0.00;0.00;;;;;;;;;;5011414;28;98527;-73
2022/05/06 05:22:56;;;;;;;0.22;0.22;;;;;;;;;;4990188;28;101729;-73
2022/05/06 05:25:23;;;;;;;0.00;0.00;;;;;;;;;;4993880;28;101735;-73
2022/05/06 05:27:53;;;;;;;0.00;0.00;;;;;;;;;;4996232;28;98572;-73
2022/05/06 05:30:34;;;;;;;0.30;0.30;;;;;;;;;;4996468;28;101916;-73
2022/05/06 05:33:04;;;;;;;0.00;0.00;;;;;;;;;;5011869;28;101801;-73
2022/05/06 05:35:33;;;;;;;0.00;0.00;;;;;;;;;;4999321;28;98432;-73
2022/05/06 05:38:04;;;;;;;0.10;0.10;;;;;;;;;;5012188;28;102489;-73
2022/05/06 05:40:32;;;;;;;0.20;0.15;;;;;;;;;;4996046;28;98525;-72
2022/05/06 05:43:00;;;;;;;2.17;0.65;;;;;;;;;;5012829;28;101811;-72
2022/05/06 05:48:22;;;;;;;2.08;0.55;;;;;;;;;;4995977;28;98512;-73
2022/05/06 05:50:54;;;;;;;0.00;0.00;;;;;;;;;;5013086;28;101233;-73
2022/05/06 05:53:28;;;;;;;0.00;0.00;;;;;;;;;;4995291;28;101815;-73
2022/05/06 05:55:57;;;;;;;0.13;0.13;;;;;;;;;;4979717;28;98410;-72
2022/05/06 05:58:24;;;;;;;0.00;0.00;;;;;;;;;;4995550;28;101377;-72
2022/05/06 06:00:53;;;;;;;0.00;0.00;;;;;;;;;;4995574;28;98473;-72
2022/05/06 06:03:25;;;;;;;0.00;0.00;;;;;;;;;;4995470;28;101431;-72
2022/05/06 06:05:52;;;;;;;0.00;0.00;;;;;;;;;;4995365;28;101360;-72
2022/05/06 06:08:19;;;;;;;0.15;0.15;;;;;;;;;;4995103;28;98559;-72
2022/05/06 06:10:46;;;;;;;0.00;0.00;;;;;;;;;;4995441;28;100771;-72
2022/05/06 06:13:15;;;;;;;0.00;0.00;;;;;;;;;;5011937;28;102167;-72
2022/05/06 06:15:44;;;;;;;0.03;0.03;;;;;;;;;;5012687;28;97747;-72
2022/05/06 06:18:12;;;;;;;0.20;0.20;;;;;;;;;;4995426;28;100924;-72
2022/05/06 06:20:39;;;;;;;0.00;0.00;;;;;;;;;;5014499;28;102997;-72
2022/05/06 06:23:05;;;;;;;0.00;0.00;;;;;;;;;;4994830;28;101313;-72
2022/05/06 06:25:33;;;;;;;0.00;0.00;;;;;;;;;;4994903;28;102191;-72
2022/05/06 06:28:00;;;;;;;0.00;0.00;;;;;;;;;;5013334;28;98353;-70
2022/05/06 06:30:28;;;;;;;0.00;0.00;;;;;;;;;;4995230;28;101539;-70
2022/05/06 06:32:58;;;;;;;0.00;0.00;;;;;;;;;;4994789;28;101873;-71
2022/05/06 06:35:24;;;;;;;0.00;0.00;;;;;;;;;;4994581;28;98337;-73
2022/05/06 06:37:54;;;;;;;0.00;0.00;;;;;;;;;;5011781;28;102262;-71
2022/05/06 06:40:23;;;;;;;0.00;0.00;;;;;;;;;;4998430;28;101426;-72
2022/05/06 06:42:50;;;;;;;0.00;0.00;;;;;;;;;;5013102;28;98637;-74
2022/05/06 06:45:34;;;;;;;0.00;0.00;;;;;;;;;;5011498;28;101631;-73
2022/05/06 06:48:10;;;;;;;0.00;0.00;;;;;;;;;;4994424;28;99129;-73
2022/05/06 06:50:56;;;;;;;0.00;0.00;;;;;;;;;;4991087;28;99347;-74
2022/05/06 06:53:24;;;;;;;0.00;0.00;;;;;;;;;;5012637;28;99488;-74
2022/05/06 06:55:50;;;;;;;0.00;0.00;;;;;;;;;;5012737;28;98595;-73
2022/05/06 06:58:16;;;;;;;0.03;0.03;;;;;;;;;;5012402;28;99478;-74
2022/05/06 07:00:43;;;;;;;0.00;0.00;;;;;;;;;;5012195;28;99861;-74
2022/05/06 07:03:10;;;;;;;0.00;0.00;;;;;;;;;;5016086;28;98374;-74
2022/05/06 07:05:37;;;;;;;0.00;0.00;;;;;;;;;;5012773;28;98524;-74
2022/05/06 07:13:44;;;;;;;0.05;0.05;;;;;;;;;;5011719;28;100692;-72
2022/05/06 07:16:11;;;;;;;0.00;0.00;;;;;;;;;;5012738;28;98390;-72
2022/05/06 07:18:37;;;;;;;0.10;0.10;;;;;;;;;;5012633;28;99396;-72
2022/05/06 07:21:03;;;;;;;0.00;0.00;;;;;;;;;;4994144;28;102197;-72
2022/05/06 07:23:30;;;;;;;0.17;0.17;;;;;;;;;;5012007;28;98801;-74
2022/05/06 07:25:56;;;;;;;0.00;0.00;;;;;;;;;;5015173;28;99932;-74
2022/05/06 07:28:23;;;;;;;0.10;0.10;;;;;;;;;;5012391;28;98271;-72
2022/05/06 07:30:49;;;;;;;0.03;0.03;;;;;;;;;;5012960;28;99309;-72
2022/05/06 07:33:16;;;;;;;0.15;0.15;;;;;;;;;;5011850;28;100512;-72
2022/05/06 07:35:42;;;;;;;0.00;0.00;;;;;;;;;;5012236;28;98505;-73
2022/05/06 07:38:09;;;;;;;0.35;0.35;;;;;;;;;;5011556;28;99307;-72
2022/05/06 07:40:35;;;;;;;0.00;0.00;;;;;;;;;;5011919;28;99614;-72
2022/05/06 07:43:02;;;;;;;1.45;0.38;;;;;;;;;;5012245;28;98418;-71
2022/05/06 07:45:29;;;;;;;0.10;0.10;;;;;;;;;;5008718;28;99001;-71
2022/05/06 07:47:55;;;;;;;0.00;0.00;;;;;;;;;;5004329;28;99622;-71
2022/05/06 07:50:31;;;;;;;0.00;0.00;;;;;;;;;;5004175;28;100294;-72
2022/05/06 07:52:58;;;;;;;0.00;0.00;;;;;;;;;;5004821;28;99784;-71
2022/05/06 07:55:24;;;;;;;0.00;0.00;;;;;;;;;;5004324;28;97817;-72
2022/05/06 07:57:51;;;;;;;0.00;0.00;;;;;;;;;;5002157;28;98405;-72
2022/05/06 08:00:23;;;;;;;0.00;0.00;;;;;;;;;;5006138;28;99047;-72
2022/05/06 08:05:37;;;;;;;0.00;0.00;;;;;;;;;;5003507;28;99967;-71
2022/05/06 08:08:04;;;;;;;0.00;0.00;;;;;;;;;;5001705;28;99683;-72
2022/05/06 08:10:30;;;;;;;0.00;0.00;;;;;;;;;;5008582;28;98489;-72
2022/05/06 08:12:57;;;;;;;1.00;0.70;;;;;;;;;;5002867;28;100515;-72
2022/05/06 08:15:23;;;;;;;5.50;0.73;;;;;;;;;;5006170;28;99320;-72
2022/05/06 08:17:51;;;;;;;0.00;0.00;;;;;;;;;;4997764;28;98950;-72
2022/05/06 08:20:17;;;;;;;0.00;0.00;;;;;;;;;;5005928;28;98493;-73
2022/05/06 08:22:43;;;;;;;0.00;0.00;;;;;;;;;;5003582;28;98407;-72
2022/05/06 08:25:10;;;;;;;0.00;0.00;;;;;;;;;;5003402;28;99459;-73
2022/05/06 08:27:55;;;;;;;0.00;0.00;;;;;;;;;;4996072;28;99953;-72
2022/05/06 08:30:21;;;;;;;0.00;0.00;;;;;;;;;;4980254;28;98494;-74
2022/05/06 08:32:48;;;;;;;1.08;0.70;;;;;;;;;;5006159;28;99959;-74
2022/05/06 08:35:15;;;;;;;0.30;0.30;;;;;;;;;;4986892;28;99199;-74
2022/05/06 08:37:42;;;;;;;0.00;0.00;;;;;;;;;;5002290;28;99830;-74
2022/05/06 08:40:08;;;;;;;0.00;0.00;;;;;;;;;;5002815;28;99282;-74
2022/05/06 08:42:35;;;;;;;0.00;0.00;;;;;;;;;;5005074;28;98451;-76
2022/05/06 08:50:53;;;;;;;0.10;0.10;;;;;;;;;;4999013;28;98280;-77
2022/05/06 08:53:21;;;;;;;0.20;0.20;;;;;;;;;;5005231;28;99374;-77
2022/05/06 08:55:55;;;;;;;0.00;0.00;;;;;;;;;;5004176;28;98469;-77
2022/05/06 08:58:22;;;;;;;0.00;0.00;;;;;;;;;;5001218;28;98992;-79
2022/05/06 09:00:49;;;;;;;0.10;0.10;;;;;;;;;;5003633;28;98877;-80
2022/05/06 09:03:16;;;;;;;0.00;0.00;;;;;;;;;;5002924;28;98639;-75
2022/05/06 09:05:49;;;;;;;0.20;0.20;;;;;;;;;;5004492;28;101248;-80
2022/05/06 09:08:15;;;;;;;0.35;0.35;;;;;;;;;;4999265;28;99731;-76
2022/05/06 09:10:42;;;;;;;0.20;0.20;;;;;;;;;;5005729;28;98426;-77
2022/05/06 09:13:08;;;;;;;0.03;0.03;;;;;;;;;;5002141;28;99226;-79
2022/05/06 09:18:22;;;;;;;0.08;0.08;;;;;;;;;;4996016;28;99065;-78
2022/05/06 09:21:08;;;;;;;0.17;0.17;;;;;;;;;;5003531;28;99345;-77
2022/05/06 09:23:34;;;;;;;0.10;0.10;;;;;;;;;;5001785;28;99319;-78
2022/05/06 09:26:00;;;;;;;0.20;0.20;;;;;;;;;;4979404;28;100255;-79
2022/05/06 09:28:27;;;;;;;0.30;0.30;;;;;;;;;;4984913;28;100067;-77
2022/05/06 09:31:04;;;;;;;0.10;0.10;;;;;;;;;;4984837;28;98601;-78
2022/05/06 09:33:32;;;;;;;0.00;0.00;;;;;;;;;;5000828;28;99267;-80
2022/05/06 09:35:59;;;;;;;0.03;0.03;;;;;;;;;;5003624;28;98761;-80
2022/05/06 09:38:26;;;;;;;0.25;0.25;;;;;;;;;;5005189;28;98383;-79
2022/05/06 09:40:52;;;;;;;0.10;0.10;;;;;;;;;;5001656;28;98385;-80
2022/05/06 09:43:19;;;;;;;0.00;0.00;;;;;;;;;;5004722;28;99152;-80
2022/05/06 09:45:46;;;;;;;0.13;0.13;;;;;;;;;;4979219;28;99701;-79
2022/05/06 09:48:14;;;;;;;0.52;0.52;;;;;;;;;;5001710;28;99631;-80
2022/05/06 09:50:41;;;;;;;0.10;0.10;;;;;;;;;;5003573;28;98803;-81
2022/05/06 09:53:16;;;;;;;0.75;0.40;;;;;;;;;;5001931;28;100110;-79
2022/05/06 09:55:44;;;;;;;0.32;0.32;;;;;;;;;;5003093;28;99863;-81
2022/05/06 09:58:11;;;;;;;0.30;0.30;;;;;;;;;;5000647;28;98437;-75
2022/05/06 10:00:38;;;;;;;0.10;0.10;;;;;;;;;;4982340;28;99263;-75
2022/05/06 10:03:05;;;;;;;0.28;0.28;;;;;;;;;;5003346;28;98700;-74
2022/05/06 10:05:33;;;;;;;0.10;0.10;;;;;;;;;;5001495;28;100757;-74
2022/05/06 10:08:08;;;;;;;0.10;0.10;;;;;;;;;;4982336;28;100408;-74
2022/05/06 10:10:38;;;;;;;0.10;0.10;;;;;;;;;;4999644;28;98611;-75
2022/05/06 10:13:06;;;;;;;0.20;0.20;;;;;;;;;;5001940;28;99211;-72
2022/05/06 10:15:32;;;;;;;0.22;0.22;;;;;;;;;;5003705;28;99604;-73
2022/05/06 10:18:02;;;;;;;0.20;0.20;;;;;;;;;;4998647;28;98511;-74
2022/05/06 10:20:35;;;;;;;0.10;0.10;;;;;;;;;;5001124;28;98896;-73
2022/05/06 10:23:07;;;;;;;0.00;0.00;;;;;;;;;;5000456;28;99692;-74
2022/05/06 10:25:40;;;;;;;0.00;0.00;;;;;;;;;;4998270;28;99134;-74
2022/05/06 10:34:07;;;;;;;0.10;0.10;;;;;;;;;;4997043;28;99260;-74
2022/05/06 10:36:41;;;;;;;0.55;0.30;;;;;;;;;;4996491;28;99621;-75
2022/05/06 10:39:26;;;;;;;0.50;0.43;;;;;;;;;;4996337;28;99543;-74
2022/05/06 10:42:19;;;;;;;0.10;0.10;;;;;;;;;;5000825;28;99551;-80
2022/05/06 10:44:53;;;;;;;0.00;0.00;;;;;;;;;;4982912;28;101748;-77
2022/05/06 10:47:20;;;;;;;0.30;0.30;;;;;;;;;;4988067;28;99702;-75
2022/05/06 10:49:47;;;;;;;0.00;0.00;;;;;;;;;;5000639;28;99576;-76
2022/05/06 10:54:49;;;;;;;0.17;0.17;;;;;;;;;;5003318;28;98484;-76
2022/05/06 10:57:16;;;;;;;0.32;0.32;;;;;;;;;;4996148;28;101518;-72
2022/05/06 11:00:00;;;;;;;0.10;0.10;;;;;;;;;;5003248;28;99139;-77
2022/05/06 11:02:28;;;;;;;0.10;0.10;;;;;;;;;;5000190;28;99570;-77
2022/05/06 11:04:59;;;;;;;0.00;0.00;;;;;;;;;;5002449;28;99413;-79
2022/05/06 11:07:30;;;;;;;0.13;0.13;;;;;;;;;;4986103;28;99501;-78
2022/05/06 11:09:59;;;;;;;0.10;0.10;;;;;;;;;;4984323;28;100722;-77
2022/05/06 11:12:33;;;;;;;0.90;0.90;;;;;;;;;;5001417;28;98439;-79
2022/05/06 11:15:03;;;;;;;0.00;0.00;;;;;;;;;;5001459;28;101193;-77
2022/05/06 11:17:31;;;;;;;0.10;0.10;;;;;;;;;;5000964;28;99339;-77
2022/05/06 11:20:14;;;;;;;0.20;0.20;;;;;;;;;;5002684;28;98390;-78
2022/05/06 11:22:56;;;;;;;0.10;0.10;;;;;;;;;;4988601;28;99894;-77
2022/05/06 11:25:23;;;;;;;0.10;0.10;;;;;;;;;;5003516;28;100410;-78
2022/05/06 11:27:55;;;;;;;0.10;0.10;;;;;;;;;;5015901;28;98351;-77
2022/05/06 11:30:22;;;;;;;0.00;0.00;;;;;;;;;;5001468;28;99333;-77
2022/05/06 11:32:58;;;;;;;0.00;0.00;;;;;;;;;;5015827;28;98439;-77
2022/05/06 11:35:39;;;;;;;0.10;0.10;;;;;;;;;;5015832;28;99210;-78
2022/05/06 11:38:07;;;;;;;;;;;;;;;;;;5015606;28;100529;-77
2022/05/06 11:40:35;;;;;;;0.10;0.10;;;;;;;;;;5014698;28;116636;-77
2022/05/06 11:43:02;;;;;;;0.10;0.10;;;;;;;;;;5016152;28;99459;-78
2022/05/06 11:48:16;;;;;;;0.20;0.20;;;;;;;;;;5015393;28;98394;-77
2022/05/06 11:50:44;;;;;;;0.15;0.15;;;;;;;;;;5015072;28;99202;-77
2022/05/06 11:53:11;;;;;;;0.10;0.10;;;;;;;;;;5019151;28;99577;-77
2022/05/06 11:55:39;;;;;;;0.10;0.10;;;;;;;;;;5015656;28;99496;-77
2022/05/06 11:58:05;;;;;;;0.52;0.52;;;;;;;;;;5014980;28;99875;-77
2022/05/06 12:00:32;;;;;;;0.30;0.30;;;;;;;;;;4997256;28;98605;-77
2022/05/06 12:03:04;;;;;;;0.00;0.00;;;;;;;;;;5014970;28;98707;-77
2022/05/06 12:05:31;;;;;;;0.05;0.05;;;;;;;;;;5014939;28;99563;-76
2022/05/06 12:07:57;;;;;;;0.10;0.10;;;;;;;;;;5015800;28;97688;-77
2022/05/06 12:10:28;;;;;;;0.20;0.20;;;;;;;;;;5015404;28;98560;-76
2022/05/06 12:12:54;;;;;;;0.20;0.20;;;;;;;;;;5014674;28;100235;-77
2022/05/06 12:15:27;;;;;;;0.20;0.20;;;;;;;;;;5017594;28;99222;-78
2022/05/06 12:18:24;;;;;;;0.10;0.10;;;;;;;;;;5014679;28;99760;-77
2022/05/06 12:20:51;;;;;;;0.20;0.20;;;;;;;;;;5014228;28;98375;-76
2022/05/06 12:23:26;;;;;;;0.20;0.20;;;;;;;;;;5015371;28;99835;-76
2022/05/06 12:25:57;;;;;;;0.10;0.10;;;;;;;;;;5014284;28;99638;-74
2022/05/06 12:28:24;;;;;;;0.10;0.10;;;;;;;;;;5015032;28;98409;-75
2022/05/06 12:30:57;;;;;;;0.05;0.05;;;;;;;;;;5014688;28;100627;-76
2022/05/06 12:33:34;;;;;;;0.10;0.10;;;;;;;;;;5014676;28;99926;-75
2022/05/06 12:36:04;;;;;;;1.08;0.52;;;;;;;;;;5014921;28;98441;-75
2022/05/06 12:38:39;;;;;;;0.10;0.10;;;;;;;;;;5017552;28;99467;-75
2022/05/06 12:41:35;;;;;;;0.30;0.30;;;;;;;;;;5014198;28;99116;-75
2022/05/06 12:44:15;;;;;;;0.15;0.15;;;;;;;;;;5005484;28;100413;-75
2022/05/06 12:46:41;;;;;;;0.10;0.10;;;;;;;;;;5013965;28;99707;-71
2022/05/06 12:51:53;;;;;;;0.30;0.30;;;;;;;;;;5014661;28;99548;-71
2022/05/06 12:54:19;;;;;;;0.32;0.32;;;;;;;;;;5014378;28;99063;-71
2022/05/06 12:56:46;;;;;;;0.00;0.00;;;;;;;;;;5007505;28;98496;-71
2022/05/06 12:59:12;;;;;;;0.10;0.10;;;;;;;;;;5008707;28;99963;-72
2022/05/06 13:01:39;;;;;;;0.10;0.10;;;;;;;;;;5002163;28;98468;-71
2022/05/06 13:04:05;;;;;;;0.30;0.30;;;;;;;;;;5005474;28;100647;-71
2022/05/06 13:06:32;;;;;;;0.13;0.13;;;;;;;;;;5001554;28;100604;-71
2022/05/06 13:08:59;;;;;;;0.20;0.20;;;;;;;;;;5004570;28;98414;-71
2022/05/06 13:11:25;;;;;;;0.00;0.00;;;;;;;;;;5003275;28;100269;-72
2022/05/06 13:13:52;;;;;;;0.40;0.40;;;;;;;;;;5002866;28;99635;-71
2022/05/06 13:16:18;;;;;;;0.10;0.10;;;;;;;;;;5004456;28;98388;-72
2022/05/06 13:18:48;;;;;;;0.32;0.32;;;;;;;;;;5002713;28;98568;-72
2022/05/06 13:21:14;;;;;;;0.10;0.10;;;;;;;;;;5008275;28;99138;-72
2022/05/06 13:23:43;;;;;;;1.08;0.75;;;;;;;;;;5002331;28;99363;-72
2022/05/06 13:26:10;;;;;;;0.10;0.10;;;;;;;;;;4993054;28;99512;-72
2022/05/06 13:28:36;;;;;;;0.10;0.10;;;;;;;;;;5002105;28;99002;-71
2022/05/06 13:31:02;;;;;;;0.20;0.20;;;;;;;;;;5002170;28;100267;-71
2022/05/06 13:33:31;;;;;;;0.22;0.22;;;;;;;;;;5002399;28;100929;-71
2022/05/06 13:35:58;;;;;;;0.30;0.30;;;;;;;;;;5003626;28;98422;-71
2022/05/06 13:38:24;;;;;;;0.60;0.60;;;;;;;;;;5003138;28;99925;-71
2022/05/06 13:40:51;;;;;;;0.10;0.10;;;;;;;;;;5001298;28;99139;-71
2022/05/06 13:43:17;;;;;;;0.10;0.10;;;;;;;;;;5007743;28;98241;-71
2022/05/06 13:45:44;;;;;;;0.22;0.22;;;;;;;;;;5004449;28;99974;-71
2022/05/06 13:48:11;;;;;;;0.52;0.32;;;;;;;;;;4999668;28;97700;-71
2022/05/06 13:50:38;;;;;;;1.85;1.13;;;;;;;;;;5003503;28;98484;-71
2022/05/06 13:53:06;;;;;;;0.38;0.38;;;;;;;;;;5003017;28;100291;-71
2022/05/06 14:01:02;;;;;;;0.10;0.10;;;;;;;;;;5001714;28;99245;-71
2022/05/06 14:03:30;;;;;;;0.10;0.10;;;;;;;;;;5004190;28;98487;-71
2022/05/06 14:05:57;;;;;;;0.10;0.10;;;;;;;;;;5004065;28;99233;-71
2022/05/06 14:08:23;;;;;;;0.03;0.03;;;;;;;;;;4997056;28;98362;-72
2022/05/06 14:10:50;;;;;;;0.15;0.15;;;;;;;;;;5000458;28;99922;-72
2022/05/06 14:13:16;;;;;;;0.20;0.20;;;;;;;;;;5002340;28;99186;-71
2022/05/06 14:15:42;;;;;;;0.30;0.30;;;;;;;;;;5002987;28;98275;-71
2022/05/06 14:18:09;;;;;;;0.20;0.20;;;;;;;;;;4999063;28;99288;-71
2022/05/06 14:20:35;;;;;;;0.30;0.30;;;;;;;;;;4982557;28;100816;-72
2022/05/06 14:23:02;;;;;;;0.10;0.10;;;;;;;;;;5004405;28;99177;-75
2022/05/06 14:25:28;;;;;;;0.20;0.20;;;;;;;;;;4997060;28;99686;-74
2022/05/06 14:27:55;;;;;;;0.20;0.20;;;;;;;;;;5006405;28;99720;-75
2022/05/06 14:30:21;;;;;;;0.30;0.30;;;;;;;;;;5002039;28;99517;-74
2022/05/06 14:32:47;;;;;;;0.10;0.10;;;;;;;;;;5001901;28;100572;-74
2022/05/06 14:35:19;;;;;;;0.13;0.13;;;;;;;;;;5002869;28;98486;-73
2022/05/06 14:37:45;;;;;;;;;;;;;;;;;;5002599;28;99273;-75
2022/05/06 14:40:12;;;;;;;0.10;0.10;;;;;;;;;;5002270;28;128117;-76
2022/05/06 14:42:38;;;;;;;0.15;0.15;;;;;;;;;;5000435;28;99836;-76
2022/05/06 14:45:06;;;;;;;0.30;0.30;;;;;;;;;;4996796;28;99177;-79
2022/05/06 14:47:32;;;;;;;0.10;0.10;;;;;;;;;;5003419;28;99256;-75
2022/05/06 14:49:58;;;;;;;0.13;0.13;;;;;;;;;;5003834;28;98371;-74
2022/05/06 14:52:25;;;;;;;0.13;0.13;;;;;;;;;;5002160;28;99517;-73
2022/05/06 14:54:52;;;;;;;0.10;0.10;;;;;;;;;;5002496;28;98381;-78
2022/05/06 14:57:22;;;;;;;0.30;0.30;;;;;;;;;;4975431;28;102063;-81
2022/05/06 14:59:51;;;;;;;0.25;0.25;;;;;;;;;;4999884;28;99049;-74
2022/05/06 15:02:17;;;;;;;0.20;0.20;;;;;;;;;;5000846;28;97691;-73
2022/05/06 15:04:43;;;;;;;0.28;0.28;;;;;;;;;;4985851;28;102656;-74
2022/05/06 15:07:12;;;;;;;0.10;0.10;;;;;;;;;;5000120;28;100760;-75
2022/05/06 15:09:38;;;;;;;0.10;0.10;;;;;;;;;;5004050;28;99255;-75
2022/05/06 15:12:05;;;;;;;0.10;0.10;;;;;;;;;;5001121;28;99273;-78
2022/05/06 15:14:32;;;;;;;0.00;0.00;;;;;;;;;;5001889;28;99138;-75
2022/05/06 15:17:04;;;;;;;0.20;0.20;;;;;;;;;;4983955;28;100172;-75
2022/05/06 15:19:32;;;;;;;0.10;0.10;;;;;;;;;;4998224;28;98853;-75
2022/05/06 15:21:59;;;;;;;0.05;0.05;;;;;;;;;;5003418;28;98453;-76
2022/05/06 15:24:26;;;;;;;0.20;0.20;;;;;;;;;;5002557;28;98976;-76
2022/05/06 15:26:53;;;;;;;0.63;0.40;;;;;;;;;;4999353;28;100275;-77
2022/05/06 15:29:19;;;;;;;0.28;0.28;;;;;;;;;;5002737;28;98419;-79
2022/05/06 15:31:46;;;;;;;0.15;0.15;;;;;;;;;;4959500;28;99453;-80
2022/05/06 15:34:15;;;;;;;0.20;0.20;;;;;;;;;;4977229;28;99234;-82
2022/05/06 15:36:42;;;;;;;0.10;0.10;;;;;;;;;;5000779;28;100705;-81
2022/05/06 15:39:11;;;;;;;0.10;0.10;;;;;;;;;;4978422;28;102111;-80